Latest Weather Observations for Penrith

IDN60801

Issued at 8:05 pm EDT Sunday 26 October 2014 (issued every 30 minutes, with the page automatically refreshed every 10 minutes)

About weather observations | Map of weather stations | Latest weather observations for NSW | Other Formats
Station Details ID: 067113 Name: PENRITH LAKES AWS Lat: -33.72 Lon: 150.68 Height: 24.7 m
Data from the previous 72 hours. | See also: Recent months at Penrith
Date/Time
EDT
Temp
°C
App
Temp
°C
Dew
Point
Rel
Hum
%
Delta-T
°C
Wind Press
QNH
hPa
Press
MSL
hPa
Rain
since 9 am
mm
Dir
 
Spd
km/h
Gust
km/h
Spd
kts
Gust
kts
26/08:00pm 20.7 20.1 15.7 73 3.0 ESE 13 19 7 10 - - 0.0
26/07:30pm 21.7 21.2 15.8 69 3.5 E 13 19 7 10 - - 0.0
26/07:00pm 23.0 22.8 15.6 63 4.4 E 11 19 6 10 - - 0.0
26/06:30pm 23.9 23.2 15.4 59 5.1 ESE 13 20 7 11 - - 0.0
26/06:00pm 25.3 24.3 15.6 55 5.9 ESE 15 20 8 11 - - 0.0
26/05:30pm 26.5 24.7 15.5 50 6.7 SE 19 26 10 14 - - 0.0
26/05:00pm 28.9 28.1 16.1 46 7.9 SE 15 24 8 13 - - 0.0
26/04:30pm 30.7 28.5 15.9 40 9.2 ESE 22 30 12 16 - - 0.0
26/04:22pm 31.3 29.4 15.7 39 9.7 E 20 30 11 16 - - 0.0
26/04:00pm 36.3 32.1 5.5 15 16.7 WNW 17 33 9 18 - - 0.0
26/03:30pm 35.5 33.0 9.8 21 14.9 S 13 28 7 15 - - 0.0
26/03:00pm 35.4 34.4 10.4 22 14.6 SE 6 9 3 5 - - 0.0
26/02:30pm 34.9 33.8 10.7 23 14.1 ESE 7 11 4 6 - - 0.0
26/02:00pm 34.1 33.5 14.6 31 12.0 SE 11 15 6 8 - - 0.0
26/01:30pm 34.0 34.1 14.5 31 12.0 ESE 7 13 4 7 - - 0.0
26/01:00pm 33.0 33.3 15.9 35 10.7 ESE 9 17 5 9 - - 0.0
26/12:30pm 30.9 31.8 16.1 41 9.2 SSE 6 7 3 4 - - 0.0
26/12:00pm 29.9 30.8 16.0 43 8.6 NE 6 9 3 5 - - 0.0
26/11:30am 28.4 30.0 17.9 53 6.7 NE 6 11 3 6 - - 0.0
26/11:00am 26.8 28.7 18.6 60 5.2 N 6 9 3 5 - - 0.0
26/10:30am 24.6 26.5 17.6 65 4.4 N 4 7 2 4 - - 0.0
26/10:00am 23.2 24.9 17.2 69 3.7 N 4 7 2 4 - - 0.0
26/09:30am 22.1 24.0 16.6 71 3.3 N 2 6 1 3 - - 0.0
26/09:00am 21.3 23.7 16.9 76 2.7 CALM 0 4 0 2 - - 2.2
26/08:30am 20.2 21.8 17.0 82 1.9 SSW 4 7 2 4 - - 2.2
26/08:00am 20.0 21.4 17.4 85 1.6 S 6 9 3 5 - - 2.2
26/07:30am 19.4 21.2 17.5 89 1.2 SSW 4 6 2 3 - - 2.2
26/07:00am 19.1 21.0 17.6 91 0.9 SSW 4 7 2 4 - - 2.2
26/06:30am 18.8 21.0 17.5 92 0.8 SW 2 4 1 2 - - 2.2
26/06:00am 18.7 20.5 17.5 93 0.7 WSW 4 6 2 3 - - 2.2
26/05:30am 18.6 20.0 17.4 93 0.7 WSW 6 9 3 5 - - 2.2
26/05:00am 18.8 21.4 17.5 92 0.8 CALM 0 4 0 2 - - 2.2
26/04:30am 18.6 21.2 17.4 93 0.7 CALM 0 0 0 0 - - 2.2
26/04:00am 18.6 20.4 17.4 93 0.7 ENE 4 4 2 2 - - 2.2
26/03:30am 18.5 21.0 17.2 92 0.8 CALM 0 0 0 0 - - 2.2
26/03:00am 18.8 20.6 17.3 91 0.9 NE 4 6 2 3 - - 2.2
26/02:30am 19.1 20.4 17.2 89 1.2 NNE 6 7 3 4 - - 2.2
26/02:00am 19.6 20.8 17.4 87 1.3 NNE 7 11 4 6 - - 2.2
26/01:30am 19.8 21.2 17.4 86 1.5 N 6 9 3 5 - - 2.2
26/01:00am 19.8 20.6 17.4 86 1.5 N 9 13 5 7 - - 2.2
26/12:30am 19.9 21.1 17.3 85 1.6 N 7 11 4 6 - - 2.2
26/12:00am 19.9 20.6 17.1 84 1.7 ENE 9 15 5 8 - - 2.2
 
Date/Time
EDT
Temp
°C
App
Temp
°C
Dew
Point
Rel
Hum
%
Delta-T
°C
Wind Press
QNH
hPa
Press
MSL
hPa
Rain
since 9 am
mm
Dir
 
Spd
km/h
Gust
km/h
Spd
kts
Gust
kts
25/11:30pm 20.1 21.3 16.9 82 1.9 SSE 6 7 3 4 - - 2.2
25/11:00pm 20.3 20.6 17.1 82 2.0 SSW 11 15 6 8 - - 2.2
25/10:30pm 20.2 21.5 17.0 82 1.9 SSE 6 7 3 4 - - 2.2
25/10:00pm 20.3 21.3 16.9 81 2.1 ESE 7 13 4 7 - - 2.2
25/09:30pm 20.2 20.5 17.0 82 1.9 ESE 11 13 6 7 - - 2.2
25/09:00pm 20.3 20.9 16.9 81 2.1 ESE 9 13 5 7 - - 2.2
25/08:30pm 20.8 22.3 17.6 82 2.0 ENE 6 9 3 5 - - 2.2
25/08:00pm 20.9 21.3 17.3 80 2.2 ESE 11 17 6 9 - - 2.2
25/07:30pm 21.8 22.7 17.6 77 2.6 E 9 13 5 7 - - 2.2
25/07:00pm 22.5 24.0 17.6 74 3.0 ESE 6 19 3 10 - - 2.2
25/06:30pm 23.8 24.5 17.1 66 4.1 SSE 9 11 5 6 - - 0.0
25/06:00pm 24.4 24.5 16.6 61 4.8 ESE 11 15 6 8 - - 0.0
25/05:30pm 25.8 25.4 16.1 55 5.9 ESE 13 19 7 10 - - 0.0
25/05:00pm 27.9 28.1 16.8 50 6.9 ESE 11 17 6 9 - - 0.0
25/04:30pm 28.9 28.8 16.1 46 7.9 ESE 11 19 6 10 - - 0.0
25/04:00pm 30.3 29.2 16.3 42 8.7 E 17 24 9 13 - - 0.0
25/03:30pm 31.9 30.7 16.2 38 9.8 ESE 17 24 9 13 - - 0.0
25/03:00pm 32.8 30.6 14.4 33 11.3 ESE 19 24 10 13 - - 0.0
25/02:30pm 34.2 33.9 11.4 25 13.4 NNE 4 7 2 4 - - 0.0
25/02:00pm 33.8 33.5 13.3 29 12.4 ENE 7 11 4 6 - - 0.0
25/01:30pm 33.0 31.6 12.1 28 12.4 NE 11 19 6 10 - - 0.0
25/01:00pm 32.9 32.1 10.9 26 12.8 NE 6 11 3 6 - - 0.0
25/12:30pm 32.3 32.5 13.0 31 11.6 E 4 9 2 5 - - 0.0
25/12:00pm 32.1 31.5 11.8 29 11.9 E 6 11 3 6 - - 0.0
25/11:30am 30.4 30.9 14.9 39 9.5 SE 6 9 3 5 - - 0.0
25/11:00am 28.2 30.0 17.4 52 6.8 SE 4 7 2 4 - - 0.0
25/10:30am 26.7 29.4 18.6 61 5.2 N 2 6 1 3 - - 0.0
25/10:00am 24.8 26.6 18.3 67 4.1 NNW 6 7 3 4 - - 0.0
25/09:30am 22.8 24.9 17.3 71 3.4 NNW 2 6 1 3 - - 0.0
25/09:00am 21.6 23.9 16.8 74 2.9 CALM 0 0 0 0 - - 0.2
25/08:30am 20.0 22.0 16.0 78 2.4 CALM 0 4 0 2 - - 0.2
25/08:00am 18.9 20.7 15.6 81 1.9 CALM 0 4 0 2 - - 0.2
25/07:30am 17.8 19.3 15.6 87 1.3 W 2 4 1 2 - - 0.2
25/07:00am 16.7 17.9 15.9 95 0.5 W 4 6 2 3 - - 0.2
25/06:30am 15.8 16.7 15.2 96 0.3 W 4 6 2 3 - - 0.2
25/06:00am 16.1 17.2 15.5 96 0.3 W 4 6 2 3 - - 0.2
25/05:30am 15.9 16.4 15.1 95 0.5 W 6 6 3 3 - - 0.2
25/05:00am 16.8 18.0 16.0 95 0.5 W 4 6 2 3 - - 0.2
25/04:30am 16.8 18.0 15.8 94 0.6 W 4 7 2 4 - - 0.2
25/04:00am 18.1 20.5 17.1 94 0.6 CALM 0 0 0 0 - - 0.2
25/03:30am 18.4 20.8 17.1 92 0.8 CALM 0 0 0 0 - - 0.2
25/03:00am 18.7 21.1 17.0 90 1.0 CALM 0 0 0 0 - - 0.2
25/02:30am 19.1 21.7 17.4 90 1.0 CALM 0 0 0 0 - - 0.2
25/02:00am 19.1 21.0 16.7 86 1.4 S 2 4 1 2 - - 0.2
25/01:30am 19.8 21.3 16.6 82 1.9 S 4 4 2 2 - - 0.2
25/01:00am 20.1 21.6 16.7 81 2.1 S 4 6 2 3 - - 0.2
25/12:30am 20.7 21.9 16.9 79 2.3 S 6 9 3 5 - - 0.2
25/12:00am 21.2 22.0 17.2 78 2.5 S 9 15 5 8 - - 0.2
 
Date/Time
EDT
Temp
°C
App
Temp
°C
Dew
Point
Rel
Hum
%
Delta-T
°C
Wind Press
QNH
hPa
Press
MSL
hPa
Rain
since 9 am
mm
Dir
 
Spd
km/h
Gust
km/h
Spd
kts
Gust
kts
24/11:30pm 21.6 22.4 17.2 76 2.7 S 9 15 5 8 - - 0.2
24/11:00pm 21.4 22.7 17.6 79 2.3 SSW 7 11 4 6 - - 0.2
24/10:30pm 21.1 22.6 17.5 80 2.2 SW 6 9 3 5 - - 0.2
24/10:00pm 21.6 24.1 18.2 81 2.1 SW 2 6 1 3 - - 0.2
24/09:30pm 22.2 24.5 17.6 75 2.8 ENE 2 4 1 2 - - 0.2
24/09:00pm 23.1 25.2 18.0 73 3.2 N 4 6 2 3 - - 0.2
24/08:30pm 23.9 26.3 16.9 65 4.3 CALM 0 0 0 0 - - 0.2
24/08:00pm 24.5 26.5 17.0 63 4.6 NNE 2 4 1 2 - - 0.2
24/07:30pm 25.4 27.2 16.5 58 5.5 NNW 2 2 1 1 - - 0.2
24/07:00pm 26.2 26.0 16.7 56 5.9 NE 13 22 7 12 - - 0.2
24/06:30pm 27.3 26.9 16.3 51 6.8 ENE 13 20 7 11 - - 0.2
24/06:00pm 28.6 28.2 15.2 44 8.2 ENE 11 17 6 9 - - 0.2
24/05:30pm 29.6 28.2 14.6 40 9.1 NE 15 22 8 12 - - 0.2
24/05:00pm 29.9 28.6 14.8 39 9.2 NE 15 20 8 11 - - 0.2
24/04:30pm 29.5 27.5 14.9 41 8.9 NE 19 28 10 15 - - 0.2
24/04:00pm 30.0 28.1 15.3 41 9.0 NE 19 26 10 14 - - 0.2
24/03:30pm 29.4 27.2 14.8 41 8.9 NE 20 32 11 17 - - 0.2
24/03:00pm 29.4 27.7 16.2 44 8.2 NE 20 30 11 16 - - 0.2
24/02:30pm 28.5 26.6 15.8 46 7.8 NE 20 28 11 15 - - 0.2
24/02:00pm 28.2 27.0 17.1 51 7.0 NE 19 28 10 15 - - 0.2
24/01:30pm 26.7 27.0 17.8 58 5.6 NE 13 19 7 10 - - 0.2
24/01:00pm 25.6 26.3 18.0 63 4.8 NE 11 17 6 9 - - 0.2
24/12:30pm 24.2 24.8 16.7 63 4.6 NE 9 15 5 8 - - 0.2
24/12:00pm 23.5 24.5 16.8 66 4.1 NNE 7 17 4 9 - - 0.2
24/11:30am 22.6 23.8 16.9 70 3.5 NE 6 11 3 6 - - 0.2
24/11:00am 21.3 22.7 16.3 73 3.0 ENE 4 7 2 4 - - 0.2
24/10:30am 20.1 21.2 16.5 80 2.2 N 6 9 3 5 - - 0.2
24/10:00am 19.5 20.4 16.0 80 2.1 N 6 9 3 5 - - 0.2
24/09:30am 19.9 21.0 14.7 72 3.0 SW 2 4 1 2 - - 0.0
24/09:00am 20.3 21.3 15.3 73 3.0 E 4 7 2 4 - - 16.2
24/08:30am 19.2 20.2 15.3 78 2.3 N 4 4 2 2 - - 16.2
24/08:00am 18.8 20.6 15.5 81 1.9 CALM 0 4 0 2 - - 16.2
24/07:30am 17.9 19.3 15.5 86 1.4 NE 2 4 1 2 - - 16.2
24/07:00am 17.2 17.8 15.2 88 1.2 S 6 7 3 4 - - 16.2
24/06:30am 17.1 17.1 15.1 88 1.2 SSW 9 17 5 9 - - 16.2
24/06:00am 17.0 17.9 15.2 89 1.0 NW 4 15 2 8 - - 16.2
24/05:30am 17.5 18.1 15.7 89 1.1 S 7 9 4 5 - - 16.2
24/05:00am 17.6 18.2 15.9 90 1.0 N 7 11 4 6 - - 16.2
24/04:30am 17.5 17.7 15.8 90 1.0 NNE 9 11 5 6 - - 16.2
24/04:00am 17.8 18.9 15.6 87 1.3 N 4 6 2 3 - - 16.2
24/03:30am 18.1 18.2 15.4 84 1.6 SW 9 13 5 7 - - 16.0
24/03:00am 17.7 18.5 15.9 89 1.1 W 6 9 3 5 - - 16.0
24/02:30am 17.7 19.3 15.9 89 1.1 SW 2 4 1 2 - - 16.0
24/02:00am 17.9 18.2 16.1 89 1.1 SSW 9 13 5 7 - - 16.0
24/01:30am 18.0 18.0 16.3 90 1.0 SSW 11 15 6 8 - - 16.0
24/01:00am 17.8 17.7 16.1 90 1.0 SSW 11 13 6 7 - - 16.0
24/12:30am 17.3 17.9 15.8 91 0.9 SW 7 11 4 6 - - 16.0
24/12:00am 17.4 17.6 15.7 90 1.0 SW 9 11 5 6 - - 16.0
 
Date/Time
EDT
Temp
°C
App
Temp
°C
Dew
Point
Rel
Hum
%
Delta-T
°C
Wind Press
QNH
hPa
Press
MSL
hPa
Rain
since 9 am
mm
Dir
 
Spd
km/h
Gust
km/h
Spd
kts
Gust
kts
23/11:30pm 16.9 17.6 15.6 92 0.8 SW 6 7 3 4 - - 16.0
23/11:00pm 17.4 18.2 15.9 91 0.9 S 6 7 3 4 - - 16.0
23/10:30pm 17.9 18.9 16.4 91 0.9 S 6 7 3 4 - - 16.0
23/10:00pm 18.1 19.1 16.4 90 1.0 SW 6 7 3 4 - - 16.0
23/09:30pm 18.4 19.3 16.0 86 1.4 SSW 6 6 3 3 - - 16.0
23/09:00pm 18.7 19.4 15.6 82 1.8 WSW 6 6 3 3 - - 16.0
23/08:30pm 19.1 18.6 16.0 82 1.8 WSW 13 17 7 9 - - 16.0

Other Formats:

Comma delimited format used in spreadsheet applications
http://www.bom.gov.au/fwo/IDN60801/IDN60801.94763.axf

JavaScript Object Notation format (JSON) in row-major order
http://www.bom.gov.au/fwo/IDN60801/IDN60801.94763.json